Time;durP1;ratioP1;P1;durP2;ratioP2;P2;SDS_P1;SDS_P2;PMS_P1;PMS_P2;Temp;Humidity;BMP_temperature;BMP_pressure;BME280_temperature;BME280_humidity;BME280_pressure;Samples;Min_cycle;Max_cycle;Signal;HPM_P1;HPM_P2
2021/03/10 00:00:37;;;;;;;6.63;2.25;;;17.10;43.20;;;;;;5103583;28;20024;-73
2021/03/10 00:03:04;;;;;;;6.28;1.70;;;16.80;44.00;;;;;;5097107;28;20028;-72
2021/03/10 00:05:30;;;;;;;5.32;2.00;;;16.90;44.60;;;;;;5095677;28;20024;-72
2021/03/10 00:07:57;;;;;;;6.57;2.30;;;16.90;43.70;;;;;;5086111;28;20088;-71
2021/03/10 00:10:23;;;;;;;9.82;1.45;;;17.00;42.70;;;;;;5098228;28;20051;-72
2021/03/10 00:12:50;;;;;;;7.30;1.92;;;16.80;43.20;;;;;;5101080;28;20027;-72
2021/03/10 00:15:16;;;;;;;5.15;1.60;;;16.90;43.00;;;;;;5102306;28;20465;-71
2021/03/10 00:17:43;;;;;;;5.32;1.95;;;16.80;43.60;;;;;;5100987;28;20106;-71
2021/03/10 00:20:12;;;;;;;9.15;2.63;;;16.80;43.60;;;;;;5095259;28;20476;-74
2021/03/10 00:22:39;;;;;;;8.75;1.70;;;16.80;43.10;;;;;;5099225;28;20032;-72
2021/03/10 00:25:06;;;;;;;5.63;1.80;;;16.90;43.00;;;;;;5095499;28;20028;-72
2021/03/10 00:27:33;;;;;;;6.50;2.30;;;16.90;42.70;;;;;;5093543;28;20032;-72
2021/03/10 00:30:01;;;;;;;5.05;1.70;;;16.70;42.40;;;;;;5086847;28;20020;-71
2021/03/10 00:32:29;;;;;;;3.38;1.63;;;16.60;42.70;;;;;;5094292;28;20016;-71
2021/03/10 00:34:56;;;;;;;5.18;2.22;;;16.50;43.30;;;;;;5082293;28;20033;-72
2021/03/10 00:37:24;;;;;;;10.40;2.67;;;16.50;43.50;;;;;;5098229;28;20030;-73
2021/03/10 00:39:51;;;;;;;8.70;2.15;;;16.40;43.90;;;;;;5098717;28;20027;-74
2021/03/10 00:42:18;;;;;;;8.35;2.30;;;16.40;43.80;;;;;;5100273;28;20442;-72
2021/03/10 00:44:45;;;;;;;5.97;2.70;;;16.30;43.30;;;;;;5101712;28;20031;-73
2021/03/10 00:47:13;;;;;;;7.68;2.20;;;16.30;43.60;;;;;;5101209;28;20376;-72
2021/03/10 00:49:40;;;;;;;10.10;2.83;;;16.10;44.30;;;;;;5100599;28;20039;-72
2021/03/10 00:52:07;;;;;;;8.43;2.10;;;15.80;44.80;;;;;;5103954;27;20028;-74
2021/03/10 00:54:34;;;;;;;5.03;1.88;;;15.90;45.20;;;;;;5102171;28;20039;-72
2021/03/10 00:57:01;;;;;;;8.48;2.83;;;15.90;45.40;;;;;;5099697;28;20105;-72
2021/03/10 00:59:27;;;;;;;7.30;2.88;;;15.90;46.00;;;;;;5100184;28;20016;-72
2021/03/10 01:01:54;;;;;;;7.53;2.92;;;15.60;44.80;;;;;;5099692;28;20024;-71
2021/03/10 01:04:20;;;;;;;8.25;2.95;;;15.40;44.00;;;;;;5097645;28;20034;-72
2021/03/10 01:06:47;;;;;;;6.13;2.80;;;15.20;44.60;;;;;;5096859;28;20062;-72
2021/03/10 01:09:14;;;;;;;6.88;3.47;;;14.80;47.70;;;;;;5092733;28;20023;-73
2021/03/10 01:11:40;;;;;;;8.48;4.18;;;14.60;49.50;;;;;;5097996;28;20024;-72
2021/03/10 01:14:07;;;;;;;11.63;3.40;;;14.30;50.70;;;;;;5101111;28;20028;-75
2021/03/10 01:16:34;;;;;;;8.88;3.38;;;14.20;51.20;;;;;;5100248;28;20062;-72
2021/03/10 01:19:01;;;;;;;3.58;3.13;;;13.80;51.90;;;;;;5101610;28;20024;-72
2021/03/10 01:21:27;;;;;;;7.82;2.95;;;13.60;53.10;;;;;;5098768;28;20480;-72
2021/03/10 01:23:54;;;;;;;6.97;4.03;;;13.40;53.30;;;;;;5097384;28;20024;-74
2021/03/10 01:26:20;;;;;;;7.15;2.78;;;12.90;53.00;;;;;;5096973;28;20169;-73
2021/03/10 01:28:47;;;;;;;5.07;3.13;;;12.70;53.60;;;;;;5099353;28;20024;-72
2021/03/10 01:31:14;;;;;;;5.28;3.03;;;12.70;54.80;;;;;;5102767;28;20031;-72
2021/03/10 01:33:41;;;;;;;2.83;2.60;;;12.70;54.10;;;;;;5095326;28;21251;-73
2021/03/10 01:36:07;;;;;;;3.63;3.00;;;12.70;54.70;;;;;;5102750;28;20045;-73
2021/03/10 01:38:34;;;;;;;4.90;3.15;;;12.40;54.60;;;;;;5085256;27;20028;-72
2021/03/10 01:41:01;;;;;;;4.63;3.00;;;12.20;54.50;;;;;;5089728;28;20030;-72
2021/03/10 01:43:27;;;;;;;7.40;3.50;;;12.20;54.30;;;;;;5098860;28;20105;-73
2021/03/10 01:45:54;;;;;;;4.95;3.40;;;12.30;54.70;;;;;;5096027;28;20024;-73
2021/03/10 01:48:22;;;;;;;4.38;3.08;;;12.30;55.40;;;;;;5095558;28;20043;-71
2021/03/10 01:50:49;;;;;;;5.40;3.13;;;12.20;54.90;;;;;;5090554;28;20101;-74
2021/03/10 01:53:16;;;;;;;5.57;3.33;;;12.30;55.40;;;;;;5097252;28;20031;-72
2021/03/10 01:55:43;;;;;;;7.28;4.25;;;12.50;56.40;;;;;;5101913;28;20035;-73
2021/03/10 01:58:12;;;;;;;6.07;2.78;;;12.50;58.20;;;;;;5100257;28;20082;-72
2021/03/10 02:00:39;;;;;;;6.15;3.20;;;12.40;58.20;;;;;;5098009;28;20326;-73
2021/03/10 02:03:06;;;;;;;10.65;3.35;;;12.20;59.00;;;;;;5097869;28;20017;-73
2021/03/10 02:05:32;;;;;;;9.27;4.13;;;12.00;58.20;;;;;;5100939;28;20039;-74
2021/03/10 02:08:25;;;;;;;6.55;2.63;;;11.80;59.80;;;;;;5103563;28;20032;-73
2021/03/10 02:11:09;;;;;;;;;;;11.70;59.90;;;;;;5099126;28;20028;-74
2021/03/10 02:14:05;;;;;;;7.22;2.97;;;11.60;60.40;;;;;;5103129;28;19908;-75
2021/03/10 02:16:57;;;;;;;15.18;5.35;;;11.40;59.20;;;;;;5021040;28;20038;-75
2021/03/10 02:19:50;;;;;;;8.60;3.30;;;11.30;60.60;;;;;;5103648;28;20020;-76
2021/03/10 02:22:40;;;;;;;11.95;3.15;;;11.30;62.60;;;;;;5095690;28;20481;-75
2021/03/10 02:25:26;;;;;;;10.73;3.25;;;11.20;62.20;;;;;;5068959;28;20490;-74
2021/03/10 02:27:55;;;;;;;10.15;3.47;;;11.20;60.90;;;;;;5100779;28;20024;-76
2021/03/10 02:30:26;;;;;;;4.60;2.60;;;11.00;62.10;;;;;;5104260;28;20413;-75
2021/03/10 02:32:55;;;;;;;6.55;2.72;;;11.20;63.80;;;;;;5101853;28;20349;-75
2021/03/10 02:35:24;;;;;;;5.38;2.80;;;11.10;63.20;;;;;;5094525;28;20385;-75
2021/03/10 02:37:53;;;;;;;4.13;3.10;;;11.00;61.80;;;;;;5097087;28;20020;-75
2021/03/10 02:40:22;;;;;;;6.60;3.42;;;11.00;64.00;;;;;;5099944;28;20452;-74
2021/03/10 02:42:49;;;;;;;6.43;3.33;;;10.80;63.60;;;;;;5103331;28;20027;-75
2021/03/10 02:45:18;;;;;;;6.32;3.30;;;10.80;62.40;;;;;;5104021;28;20016;-75
2021/03/10 02:47:45;;;;;;;8.57;3.88;;;10.80;62.70;;;;;;5100754;28;20106;-74
2021/03/10 02:50:13;;;;;;;4.13;3.20;;;10.80;62.90;;;;;;5094031;28;20497;-74
2021/03/10 02:52:40;;;;;;;11.75;7.72;;;10.70;63.70;;;;;;5092909;28;20051;-75
2021/03/10 02:55:07;;;;;;;7.97;4.90;;;10.70;62.70;;;;;;5095957;28;20023;-76
2021/03/10 02:57:34;;;;;;;4.22;3.83;;;10.60;63.00;;;;;;5092295;28;20107;-76
2021/03/10 03:00:08;;;;;;;6.25;4.03;;;10.60;63.60;;;;;;5104696;28;20028;-75
2021/03/10 03:02:37;;;;;;;10.75;5.15;;;10.50;64.80;;;;;;5104723;28;20050;-74
2021/03/10 03:05:07;;;;;;;13.57;5.30;;;10.50;65.30;;;;;;5107509;28;20023;-74
2021/03/10 03:07:36;;;;;;;6.53;3.65;;;10.60;65.10;;;;;;5099765;28;20012;-75
2021/03/10 03:10:05;;;;;;;6.57;3.10;;;10.60;64.80;;;;;;5103158;28;20107;-73
2021/03/10 03:12:33;;;;;;;3.33;3.10;;;10.70;64.90;;;;;;5094453;28;20019;-74
2021/03/10 03:15:01;;;;;;;3.10;2.80;;;10.70;64.80;;;;;;5094517;28;20463;-73
2021/03/10 03:17:30;;;;;;;4.95;3.15;;;10.80;64.40;;;;;;5102497;28;20456;-74
2021/03/10 03:19:57;;;;;;;3.90;3.50;;;10.80;64.30;;;;;;5101676;28;20023;-74
2021/03/10 03:22:25;;;;;;;9.30;5.50;;;10.80;63.70;;;;;;5094293;28;20424;-73
2021/03/10 03:24:53;;;;;;;8.35;5.93;;;10.90;63.80;;;;;;5098424;28;20050;-74
2021/03/10 03:27:26;;;;;;;12.18;6.68;;;10.90;63.20;;;;;;5099319;28;20072;-74
2021/03/10 03:29:57;;;;;;;14.73;11.07;;;11.00;62.10;;;;;;5101021;28;20028;-74
2021/03/10 03:32:31;;;;;;;43.65;29.77;;;11.10;62.60;;;;;;5094990;28;20058;-72
2021/03/10 03:34:59;;;;;;;31.58;21.52;;;11.10;61.30;;;;;;5105106;28;20030;-73
2021/03/10 03:37:26;;;;;;;4.40;3.95;;;11.30;60.60;;;;;;5105095;28;20038;-74
2021/03/10 03:39:52;;;;;;;7.15;4.25;;;11.20;60.60;;;;;;5105125;28;20016;-74
2021/03/10 03:42:20;;;;;;;6.13;4.75;;;11.10;62.40;;;;;;5106497;28;20008;-74
2021/03/10 03:44:47;;;;;;;8.23;5.30;;;11.10;62.00;;;;;;5106208;28;20346;-74
2021/03/10 03:47:15;;;;;;;8.23;5.13;;;11.10;62.00;;;;;;5106670;28;20030;-75
2021/03/10 03:49:47;;;;;;;4.05;3.58;;;11.20;62.00;;;;;;5106632;28;20054;-74
2021/03/10 03:52:16;;;;;;;5.50;4.20;;;11.20;61.50;;;;;;5104637;28;20024;-75
2021/03/10 03:54:43;;;;;;;6.63;3.85;;;11.20;60.90;;;;;;5106181;28;20023;-75
2021/03/10 03:57:10;;;;;;;6.50;4.72;;;11.10;63.40;;;;;;5100770;28;20143;-75
2021/03/10 03:59:36;;;;;;;3.63;3.33;;;11.10;62.00;;;;;;5094282;28;20020;-75
2021/03/10 04:02:03;;;;;;;4.88;4.40;;;11.00;63.90;;;;;;5104456;28;20365;-73
2021/03/10 04:04:32;;;;;;;6.00;4.80;;;10.90;64.40;;;;;;5091417;28;20034;-74
2021/03/10 04:07:00;;;;;;;8.35;5.22;;;11.00;65.00;;;;;;5101726;28;20023;-74
2021/03/10 04:09:27;;;;;;;4.40;4.00;;;11.00;62.10;;;;;;5103507;28;20028;-75
2021/03/10 04:11:54;;;;;;;6.05;4.40;;;11.00;61.00;;;;;;5099907;27;20024;-73
2021/03/10 04:14:20;;;;;;;8.88;4.97;;;11.10;62.40;;;;;;5106241;28;20361;-74
2021/03/10 04:16:47;;;;;;;5.95;4.38;;;11.00;61.90;;;;;;5103868;28;20020;-74
2021/03/10 04:19:13;;;;;;;4.60;4.05;;;11.10;63.50;;;;;;5106677;28;20031;-75
2021/03/10 04:21:40;;;;;;;5.47;4.00;;;11.00;63.90;;;;;;5104707;28;20027;-74
2021/03/10 04:24:07;;;;;;;6.38;3.17;;;11.00;65.20;;;;;;5102177;28;20023;-73
2021/03/10 04:26:33;;;;;;;3.50;3.20;;;11.20;63.70;;;;;;5104818;28;20423;-74
2021/03/10 04:29:00;;;;;;;4.20;3.60;;;11.10;63.60;;;;;;5106599;28;20089;-75
2021/03/10 04:31:26;;;;;;;3.03;2.60;;;11.00;64.10;;;;;;5098794;28;20096;-74
2021/03/10 04:33:53;;;;;;;6.38;3.58;;;11.00;65.00;;;;;;5101089;28;20028;-74
2021/03/10 04:36:19;;;;;;;4.25;3.10;;;11.00;64.20;;;;;;5102659;28;20453;-76
2021/03/10 04:38:45;;;;;;;6.32;3.03;;;11.00;64.20;;;;;;5102122;28;20088;-76
2021/03/10 04:41:12;;;;;;;4.75;2.95;;;11.00;63.20;;;;;;5106340;28;20055;-75
2021/03/10 04:43:38;;;;;;;6.88;3.53;;;11.10;63.00;;;;;;5103130;28;20516;-76
2021/03/10 04:46:05;;;;;;;3.90;2.90;;;11.20;61.20;;;;;;5102277;28;20063;-73
2021/03/10 04:48:31;;;;;;;4.95;3.40;;;11.10;61.40;;;;;;5104428;28;20039;-76
2021/03/10 04:50:58;;;;;;;5.30;3.83;;;11.20;63.60;;;;;;5100729;28;20016;-75
2021/03/10 04:53:24;;;;;;;4.35;3.70;;;11.10;62.40;;;;;;5084007;28;20039;-72
2021/03/10 04:55:51;;;;;;;5.95;3.40;;;11.00;63.50;;;;;;5103334;28;20434;-75
2021/03/10 04:58:17;;;;;;;3.40;3.10;;;11.00;64.60;;;;;;5102502;28;20462;-74
2021/03/10 05:00:44;;;;;;;2.83;2.25;;;11.00;65.60;;;;;;5100378;28;20028;-73
2021/03/10 05:03:10;;;;;;;3.40;2.78;;;11.00;66.10;;;;;;5102490;28;20015;-73
2021/03/10 05:05:37;;;;;;;3.78;2.88;;;10.90;66.00;;;;;;5105204;28;20024;-73
2021/03/10 05:08:03;;;;;;;4.15;3.20;;;11.00;65.10;;;;;;5103852;28;20032;-73
2021/03/10 05:10:30;;;;;;;3.45;3.15;;;10.90;65.70;;;;;;5103051;28;20046;-73
2021/03/10 05:12:56;;;;;;;6.22;2.42;;;10.90;66.00;;;;;;5103047;28;20115;-73
2021/03/10 05:15:23;;;;;;;3.47;3.00;;;10.90;65.70;;;;;;5103548;28;20028;-75
2021/03/10 05:17:49;;;;;;;3.42;3.10;;;10.90;67.20;;;;;;5104965;28;20021;-72
2021/03/10 05:20:15;;;;;;;4.15;3.47;;;10.90;66.80;;;;;;5104440;28;20008;-74
2021/03/10 05:22:42;;;;;;;4.30;4.00;;;11.00;66.50;;;;;;5101665;28;20020;-73
2021/03/10 05:25:10;;;;;;;8.63;5.00;;;11.10;63.00;;;;;;5103935;28;20054;-73
2021/03/10 05:27:37;;;;;;;5.47;4.22;;;11.20;63.00;;;;;;5102781;28;20030;-73
2021/03/10 05:30:06;;;;;;;7.95;4.68;;;11.20;62.00;;;;;;5100507;28;20019;-74
2021/03/10 05:32:32;;;;;;;4.88;4.43;;;11.40;62.70;;;;;;5101513;28;20082;-72
2021/03/10 05:34:59;;;;;;;4.38;3.95;;;11.40;63.40;;;;;;5103332;28;20040;-73
2021/03/10 05:37:25;;;;;;;4.28;3.90;;;11.50;64.00;;;;;;5103306;28;20059;-74
2021/03/10 05:39:52;;;;;;;4.70;4.30;;;11.50;64.10;;;;;;5097245;28;20049;-73
2021/03/10 05:42:18;;;;;;;9.98;5.63;;;11.80;65.20;;;;;;5104351;28;20012;-74
2021/03/10 05:44:49;;;;;;;6.55;4.22;;;11.60;63.10;;;;;;5099688;28;20023;-75
2021/03/10 05:47:18;;;;;;;3.78;3.47;;;11.40;64.00;;;;;;5103801;28;20024;-75
2021/03/10 05:49:46;;;;;;;7.43;3.72;;;11.40;64.10;;;;;;5099999;28;20032;-73
2021/03/10 05:52:13;;;;;;;6.55;3.90;;;11.40;64.20;;;;;;5100459;28;20370;-72
2021/03/10 05:54:43;;;;;;;7.43;2.83;;;11.40;64.60;;;;;;5099814;28;20027;-73
2021/03/10 05:57:10;;;;;;;4.53;3.55;;;11.30;64.30;;;;;;5103141;28;20028;-73
2021/03/10 05:59:37;;;;;;;2.95;2.72;;;11.20;64.80;;;;;;5103058;28;20334;-72
2021/03/10 06:02:04;;;;;;;5.10;4.60;;;11.20;63.90;;;;;;5104189;28;20020;-73
2021/03/10 06:04:41;;;;;;;5.47;3.00;;;11.20;64.30;;;;;;5094681;28;20042;-74
2021/03/10 06:07:30;;;;;;;8.00;5.75;;;11.30;64.40;;;;;;5096991;28;20031;-74
2021/03/10 06:10:01;;;;;;;4.35;3.90;;;11.20;64.10;;;;;;5104394;28;20349;-74
2021/03/10 06:12:41;;;;;;;11.73;10.52;;;11.20;64.90;;;;;;5101564;28;20036;-73
2021/03/10 06:15:10;;;;;;;9.82;8.68;;;11.20;64.20;;;;;;5102841;28;20357;-72
2021/03/10 06:17:52;;;;;;;3.92;3.63;;;11.20;64.50;;;;;;5103527;28;20438;-72
2021/03/10 06:20:25;;;;;;;13.65;10.73;;;11.10;65.40;;;;;;5102869;28;20020;-73
2021/03/10 06:22:55;;;;;;;14.40;11.80;;;11.00;66.10;;;;;;5102298;28;20405;-72
2021/03/10 06:25:34;;;;;;;6.57;5.97;;;11.00;66.80;;;;;;5103315;28;20027;-72
2021/03/10 06:28:00;;;;;;;4.50;4.10;;;11.00;66.90;;;;;;5100787;28;20027;-71
2021/03/10 06:30:43;;;;;;;4.10;3.80;;;11.10;66.50;;;;;;5103924;28;20011;-72
2021/03/10 06:33:19;;;;;;;4.47;4.07;;;11.10;67.20;;;;;;5099696;28;20024;-72
2021/03/10 06:35:46;;;;;;;4.70;4.20;;;11.10;67.30;;;;;;5106296;28;20024;-72
2021/03/10 06:38:19;;;;;;;14.60;10.30;;;11.10;67.40;;;;;;5103954;28;20114;-72
2021/03/10 06:40:50;;;;;;;6.45;5.10;;;11.20;64.80;;;;;;5106267;28;20016;-73
2021/03/10 06:43:17;;;;;;;11.50;4.50;;;11.30;65.20;;;;;;5102162;28;20024;-72
2021/03/10 06:45:44;;;;;;;6.88;3.28;;;11.40;65.20;;;;;;5105256;28;20024;-72
2021/03/10 06:48:22;;;;;;;8.00;4.53;;;11.30;66.20;;;;;;5104310;28;20164;-72
2021/03/10 06:50:49;;;;;;;4.65;2.85;;;11.30;66.00;;;;;;5105673;28;20066;-72
2021/03/10 06:53:16;;;;;;;11.23;3.65;;;11.30;66.00;;;;;;5105348;27;20030;-72
2021/03/10 06:55:44;;;;;;;6.30;3.38;;;11.30;65.10;;;;;;5102402;28;20086;-72
2021/03/10 06:58:21;;;;;;;6.55;3.60;;;11.40;64.90;;;;;;5103873;28;20031;-72
2021/03/10 07:00:48;;;;;;;4.38;3.97;;;11.50;64.70;;;;;;5102197;28;20034;-72
2021/03/10 07:03:15;;;;;;;9.18;3.75;;;11.50;65.00;;;;;;5102148;28;20453;-72
2021/03/10 07:05:42;;;;;;;3.15;2.80;;;11.50;64.70;;;;;;5097502;28;20032;-74
2021/03/10 07:08:09;;;;;;;4.65;3.55;;;11.40;65.20;;;;;;5084870;28;20020;-72
2021/03/10 07:10:36;;;;;;;4.43;2.97;;;11.40;65.40;;;;;;5103012;28;20032;-72
2021/03/10 07:13:02;;;;;;;6.47;4.00;;;11.30;66.10;;;;;;5102117;28;20024;-72
2021/03/10 07:15:29;;;;;;;7.22;3.33;;;11.30;64.80;;;;;;5106944;28;20028;-72
2021/03/10 07:17:58;;;;;;;6.82;3.60;;;11.30;65.70;;;;;;5102348;28;20126;-72
2021/03/10 07:20:25;;;;;;;6.72;3.97;;;11.40;65.90;;;;;;5097888;28;20042;-72
2021/03/10 07:23:13;;;;;;;3.13;2.90;;;11.30;66.00;;;;;;5100298;28;20023;-73
2021/03/10 07:25:44;;;;;;;4.13;3.47;;;11.30;67.10;;;;;;5098594;28;20521;-72
2021/03/10 07:28:31;;;;;;;4.28;3.25;;;11.30;67.10;;;;;;5098584;28;20031;-72
2021/03/10 07:30:58;;;;;;;5.60;3.30;;;11.30;67.10;;;;;;5105088;28;20028;-72
2021/03/10 07:33:25;;;;;;;6.20;2.70;;;11.30;67.10;;;;;;5100807;28;20040;-72
2021/03/10 07:35:54;;;;;;;9.40;5.00;;;11.20;66.90;;;;;;5100387;28;20054;-73
2021/03/10 07:38:34;;;;;;;6.00;4.55;;;11.30;65.00;;;;;;5100368;28;20385;-72
2021/03/10 07:41:30;;;;;;;11.57;4.35;;;11.30;66.00;;;;;;5096925;28;20024;-72
2021/03/10 07:43:58;;;;;;;13.02;4.68;;;11.30;64.70;;;;;;5103253;28;20473;-72
2021/03/10 07:46:32;;;;;;;9.30;5.22;;;11.40;64.70;;;;;;5100049;28;20040;-72
2021/03/10 07:49:01;;;;;;;7.45;4.63;;;11.40;64.20;;;;;;5102967;28;20107;-73
2021/03/10 07:51:33;;;;;;;6.88;4.47;;;11.30;65.00;;;;;;5101641;28;20051;-73
2021/03/10 07:54:02;;;;;;;9.90;4.85;;;11.20;64.90;;;;;;5100049;28;20056;-73
2021/03/10 07:56:34;;;;;;;6.55;3.72;;;11.20;64.20;;;;;;5099009;28;20084;-71
2021/03/10 07:59:19;;;;;;;6.95;4.03;;;11.20;64.40;;;;;;5100324;28;20056;-72
2021/03/10 08:01:47;;;;;;;14.80;5.03;;;11.20;64.00;;;;;;5098523;28;20019;-72
2021/03/10 08:04:18;;;;;;;10.93;4.50;;;11.20;64.60;;;;;;5096200;28;20024;-73
2021/03/10 08:06:52;;;;;;;9.77;4.55;;;11.20;64.60;;;;;;5099264;28;20028;-72
2021/03/10 08:09:24;;;;;;;10.52;5.05;;;11.20;64.80;;;;;;5096183;28;20464;-72
2021/03/10 08:12:15;;;;;;;5.28;3.92;;;11.20;65.20;;;;;;5098923;28;20061;-72
2021/03/10 08:14:45;;;;;;;7.65;3.78;;;11.20;64.70;;;;;;5101713;28;20461;-72
2021/03/10 08:17:25;;;;;;;7.25;4.35;;;11.10;65.80;;;;;;5096708;28;20055;-72
2021/03/10 08:19:59;;;;;;;6.13;3.92;;;11.00;66.90;;;;;;5100814;28;20028;-72
2021/03/10 08:22:27;;;;;;;5.40;3.47;;;11.00;67.00;;;;;;5095154;28;20362;-72
2021/03/10 08:24:55;;;;;;;6.65;3.33;;;11.10;65.90;;;;;;5098114;28;20020;-72
2021/03/10 08:27:32;;;;;;;5.43;3.97;;;11.00;66.90;;;;;;5097252;28;20020;-72
2021/03/10 08:29:59;;;;;;;9.13;4.32;;;10.90;66.50;;;;;;5099933;28;20521;-72
2021/03/10 08:32:30;;;;;;;4.82;3.75;;;11.00;65.00;;;;;;5100791;28;20040;-72
2021/03/10 08:35:18;;;;;;;6.13;4.22;;;11.10;64.50;;;;;;5100900;28;20023;-72
2021/03/10 08:37:57;;;;;;;9.07;4.53;;;11.10;64.10;;;;;;5094019;28;20039;-73
2021/03/10 08:40:25;;;;;;;10.13;4.40;;;11.10;64.40;;;;;;5100867;28;20036;-72
2021/03/10 08:42:53;;;;;;;9.60;4.30;;;11.10;64.20;;;;;;5102463;28;20038;-72
2021/03/10 08:45:24;;;;;;;8.52;3.63;;;11.00;65.40;;;;;;5102805;28;20524;-72
2021/03/10 08:48:02;;;;;;;6.72;4.25;;;10.90;65.90;;;;;;5097168;28;21475;-72
2021/03/10 08:50:34;;;;;;;7.13;4.75;;;10.80;66.00;;;;;;5101752;28;20050;-73
2021/03/10 08:53:01;;;;;;;4.43;3.72;;;10.70;66.20;;;;;;5103249;28;20038;-72
2021/03/10 08:55:28;;;;;;;6.55;3.95;;;10.80;65.50;;;;;;5102766;28;20089;-72
2021/03/10 08:57:57;;;;;;;7.57;4.05;;;10.80;65.30;;;;;;5099255;28;20034;-72
2021/03/10 09:00:27;;;;;;;6.85;4.13;;;10.80;64.90;;;;;;5101305;28;20033;-72
2021/03/10 09:02:55;;;;;;;5.45;4.93;;;10.90;64.60;;;;;;5095204;28;20417;-72
2021/03/10 09:05:29;;;;;;;12.43;4.93;;;11.00;65.60;;;;;;5100253;28;20091;-72
2021/03/10 09:07:57;;;;;;;12.80;4.45;;;11.20;65.10;;;;;;5097776;28;20028;-72
2021/03/10 09:10:24;;;;;;;6.45;3.58;;;11.00;65.00;;;;;;5094423;28;20075;-73
2021/03/10 09:12:52;;;;;;;6.97;4.03;;;10.90;65.60;;;;;;5102743;28;20024;-73
2021/03/10 09:15:25;;;;;;;12.30;5.05;;;10.90;65.00;;;;;;5103957;28;20012;-73
2021/03/10 09:17:52;;;;;;;9.52;4.88;;;11.20;65.80;;;;;;5100891;28;20030;-71
2021/03/10 09:20:36;;;;;;;10.85;4.95;;;11.10;65.00;;;;;;5090188;28;20059;-72
2021/03/10 09:23:03;;;;;;;7.95;4.50;;;11.10;65.10;;;;;;5101547;28;20089;-72
2021/03/10 09:25:40;;;;;;;5.88;5.28;;;11.10;65.30;;;;;;5097746;28;20024;-72
2021/03/10 09:28:15;;;;;;;5.78;4.47;;;11.10;65.70;;;;;;5099593;28;20472;-72
2021/03/10 09:30:44;;;;;;;20.48;8.63;;;11.10;65.60;;;;;;5097349;28;20339;-72
2021/03/10 09:33:25;;;;;;;19.25;5.80;;;11.10;65.80;;;;;;5100585;28;20454;-72
2021/03/10 09:35:54;;;;;;;7.28;5.22;;;11.30;66.80;;;;;;5100696;28;20032;-73
2021/03/10 09:38:22;;;;;;;13.02;4.57;;;11.50;66.60;;;;;;5101149;28;20100;-74
2021/03/10 09:40:54;;;;;;;12.18;5.72;;;11.70;65.90;;;;;;5097456;28;20023;-74
2021/03/10 09:43:22;;;;;;;15.25;6.13;;;11.70;64.60;;;;;;5098112;28;20047;-73
2021/03/10 09:45:50;;;;;;;5.63;4.20;;;11.40;64.30;;;;;;5099055;28;20024;-74
2021/03/10 09:48:38;;;;;;;10.15;5.35;;;10.90;66.70;;;;;;5101881;28;20059;-74
2021/03/10 09:51:08;;;;;;;12.20;5.53;;;10.70;66.30;;;;;;5098972;28;20562;-75
2021/03/10 09:53:42;;;;;;;7.32;5.03;;;10.70;66.30;;;;;;5102160;28;20028;-74
2021/03/10 09:56:13;;;;;;;9.63;5.30;;;10.50;68.90;;;;;;5098434;28;20354;-74
2021/03/10 09:59:11;;;;;;;8.15;4.60;;;10.50;67.20;;;;;;5099779;28;20024;-74
2021/03/10 10:01:46;;;;;;;13.93;5.40;;;10.30;69.00;;;;;;5088937;28;20044;-73
2021/03/10 10:04:13;;;;;;;12.00;5.28;;;10.30;68.90;;;;;;5101005;28;20542;-74
2021/03/10 10:06:57;;;;;;;9.23;5.70;;;10.20;71.00;;;;;;5094279;28;20048;-73
2021/03/10 10:09:23;;;;;;;6.22;4.65;;;10.40;68.60;;;;;;5101669;28;20096;-74
2021/03/10 10:11:49;;;;;;;6.40;4.53;;;10.40;69.00;;;;;;5100890;28;20028;-73
2021/03/10 10:14:16;;;;;;;8.60;5.65;;;10.30;69.60;;;;;;5101739;28;20027;-73
2021/03/10 10:16:42;;;;;;;8.23;5.40;;;10.30;69.50;;;;;;5097575;28;20023;-73
2021/03/10 10:19:09;;;;;;;11.00;5.07;;;10.30;69.00;;;;;;5098837;28;20024;-73
2021/03/10 10:21:35;;;;;;;9.93;6.05;;;10.30;69.10;;;;;;5098115;28;20020;-73
2021/03/10 10:24:01;;;;;;;8.60;4.78;;;10.40;68.60;;;;;;5099392;28;20067;-73
2021/03/10 10:26:28;;;;;;;9.63;5.28;;;10.40;69.00;;;;;;5097892;28;20076;-72
2021/03/10 10:28:54;;;;;;;8.05;4.40;;;10.30;69.40;;;;;;5100921;28;20020;-73
2021/03/10 10:31:21;;;;;;;8.98;4.65;;;10.30;69.70;;;;;;5100015;28;20063;-73
2021/03/10 10:33:47;;;;;;;5.43;4.63;;;10.30;69.60;;;;;;5097969;28;20037;-73
2021/03/10 10:36:13;;;;;;;4.80;4.22;;;10.30;69.60;;;;;;5102943;28;20031;-73
2021/03/10 10:38:40;;;;;;;7.55;4.45;;;10.30;69.60;;;;;;5099522;28;20158;-73
2021/03/10 10:41:06;;;;;;;11.05;4.30;;;10.30;69.70;;;;;;5103572;28;20016;-73
2021/03/10 10:43:34;;;;;;;6.05;4.95;;;10.30;70.10;;;;;;5100452;28;20024;-73
2021/03/10 10:46:01;;;;;;;11.05;5.93;;;10.30;70.10;;;;;;5102230;28;20377;-73
2021/03/10 10:48:27;;;;;;;7.03;5.32;;;10.40;69.10;;;;;;5099277;28;20059;-73
2021/03/10 10:50:54;;;;;;;8.63;6.30;;;10.40;69.60;;;;;;5103819;28;20023;-72
2021/03/10 10:53:20;;;;;;;13.13;7.30;;;10.50;67.50;;;;;;5099878;28;20039;-73
2021/03/10 10:55:47;;;;;;;7.53;5.70;;;10.70;68.60;;;;;;5099931;28;20151;-73
2021/03/10 10:58:13;;;;;;;12.05;6.75;;;10.50;69.90;;;;;;5099326;28;20028;-73
2021/03/10 11:00:39;;;;;;;9.30;3.28;;;10.30;73.10;;;;;;5100022;28;20016;-74
2021/03/10 11:03:06;;;;;;;13.15;3.63;;;10.50;69.70;;;;;;5095669;28;20016;-74
2021/03/10 11:05:33;;;;;;;10.15;3.72;;;10.80;67.20;;;;;;5101783;28;20350;-74
2021/03/10 11:08:00;;;;;;;10.35;3.25;;;10.80;66.70;;;;;;5099465;28;20019;-74
2021/03/10 11:10:27;;;;;;;10.98;3.95;;;10.70;66.70;;;;;;5101155;28;20043;-75
2021/03/10 11:12:53;;;;;;;10.18;3.05;;;10.60;66.80;;;;;;5101087;28;20103;-73
2021/03/10 11:15:20;;;;;;;13.82;3.15;;;10.40;66.40;;;;;;5101951;28;20165;-73
2021/03/10 11:17:46;;;;;;;5.00;2.90;;;10.20;67.70;;;;;;5098410;28;20051;-73
2021/03/10 11:20:13;;;;;;;9.18;3.25;;;10.10;67.80;;;;;;5100705;28;20047;-74
2021/03/10 11:22:40;;;;;;;7.43;2.70;;;10.00;68.40;;;;;;5100345;28;20024;-74
2021/03/10 11:25:08;;;;;;;6.43;3.28;;;9.90;68.90;;;;;;5105054;28;20046;-73
2021/03/10 11:27:38;;;;;;;13.65;4.20;;;9.90;69.30;;;;;;5104515;28;20052;-73
2021/03/10 11:30:10;;;;;;;9.55;2.80;;;9.80;70.20;;;;;;5104259;28;20098;-75
2021/03/10 11:32:36;;;;;;;6.77;3.10;;;9.70;69.60;;;;;;5100497;28;20024;-74
2021/03/10 11:35:05;;;;;;;7.28;3.25;;;9.70;69.00;;;;;;5102039;28;20019;-74
2021/03/10 11:37:31;;;;;;;10.35;3.35;;;9.70;68.90;;;;;;5103738;28;20027;-74
2021/03/10 11:39:58;;;;;;;10.55;3.90;;;9.70;67.70;;;;;;5103950;27;20055;-73
2021/03/10 11:42:24;;;;;;;7.75;3.78;;;9.70;67.80;;;;;;5103991;28;20027;-73
2021/03/10 11:44:51;;;;;;;12.50;3.83;;;9.70;66.90;;;;;;5103332;28;20051;-73
2021/03/10 11:47:17;;;;;;;13.90;4.30;;;9.70;66.80;;;;;;5105263;28;20399;-73
2021/03/10 11:49:44;;;;;;;13.60;4.43;;;9.80;68.00;;;;;;5102733;28;20038;-74
2021/03/10 11:52:10;;;;;;;11.55;4.88;;;9.70;67.50;;;;;;5102089;28;20335;-74
2021/03/10 11:54:36;;;;;;;17.23;4.28;;;9.80;68.80;;;;;;5102941;28;20038;-73
2021/03/10 11:57:03;;;;;;;16.73;4.93;;;9.80;67.70;;;;;;5103640;28;20032;-73
2021/03/10 11:59:29;;;;;;;19.38;6.28;;;9.90;68.90;;;;;;5101617;28;20020;-73
2021/03/10 12:01:56;;;;;;;15.02;5.25;;;9.90;68.10;;;;;;5103110;28;20038;-74
2021/03/10 12:04:22;;;;;;;14.85;4.22;;;9.70;67.90;;;;;;5102674;28;20039;-74
2021/03/10 12:06:49;;;;;;;7.80;4.38;;;9.70;68.50;;;;;;5099846;28;20032;-72
2021/03/10 12:09:17;;;;;;;11.63;4.30;;;9.60;68.60;;;;;;5105435;28;20027;-73
2021/03/10 12:11:45;;;;;;;13.10;3.78;;;9.50;68.80;;;;;;5101821;28;20087;-74
2021/03/10 12:14:11;;;;;;;15.20;4.28;;;9.50;68.80;;;;;;5104959;27;20449;-73
2021/03/10 12:16:38;;;;;;;14.73;3.85;;;9.40;68.60;;;;;;5103978;28;20602;-73
2021/03/10 12:19:04;;;;;;;10.02;4.38;;;9.40;69.10;;;;;;5104473;28;20019;-73
2021/03/10 12:21:31;;;;;;;8.52;3.40;;;9.30;69.70;;;;;;5106151;28;20026;-73
2021/03/10 12:23:58;;;;;;;7.78;2.53;;;9.20;70.30;;;;;;5100922;28;20027;-73
2021/03/10 12:26:25;;;;;;;5.97;3.25;;;9.10;71.20;;;;;;5103395;28;20027;-74
2021/03/10 12:28:52;;;;;;;13.10;3.70;;;9.10;71.10;;;;;;5102770;28;20097;-73
2021/03/10 12:31:18;;;;;;;11.63;4.10;;;9.20;70.00;;;;;;5100656;28;20381;-74
2021/03/10 12:33:44;;;;;;;11.30;3.28;;;9.20;70.50;;;;;;5104153;28;20168;-73
2021/03/10 12:36:11;;;;;;;9.40;3.22;;;9.20;70.60;;;;;;5104634;28;20461;-73
2021/03/10 12:38:37;;;;;;;7.22;3.05;;;9.20;69.60;;;;;;5103901;28;20028;-73
2021/03/10 12:41:04;;;;;;;4.30;2.60;;;9.20;70.70;;;;;;5103136;28;20353;-73
2021/03/10 12:43:30;;;;;;;9.40;3.25;;;9.20;71.20;;;;;;5104947;28;20037;-73
2021/03/10 12:45:57;;;;;;;7.78;3.95;;;9.30;70.20;;;;;;5102046;28;20461;-73
2021/03/10 12:48:23;;;;;;;10.05;3.47;;;9.30;70.00;;;;;;5102766;27;20103;-73
2021/03/10 12:50:50;;;;;;;4.20;2.70;;;9.40;68.70;;;;;;5101629;28;20036;-74
2021/03/10 12:53:16;;;;;;;6.00;3.05;;;9.40;70.10;;;;;;5103292;28;20020;-74
2021/03/10 12:55:43;;;;;;;11.27;3.45;;;9.20;72.80;;;;;;5103583;28;20088;-73